ROKJ(METAR)
08/23 19:00
ROKJ 231000Z 11013KT 9999 FEW014 SCT022 29/27 Q1009 RMK A2980=
戻る
トップページへ戻る
IMOC Co,.Ltd.